createdAt,value
2023-04-25T00:00:44.444Z,570.00
2023-04-25T00:01:44.622Z,569.00
2023-04-25T00:02:44.530Z,569.00
2023-04-25T00:03:44.648Z,568.00
2023-04-25T00:04:44.783Z,568.00
2023-04-25T00:05:44.577Z,569.00
2023-04-25T00:06:44.503Z,569.00
2023-04-25T00:07:44.532Z,569.00
2023-04-25T00:08:44.416Z,567.00
2023-04-25T00:09:44.414Z,568.00
2023-04-25T00:10:44.439Z,568.00
2023-04-25T00:11:44.352Z,569.00
2023-04-25T00:12:44.374Z,568.00
2023-04-25T00:13:44.385Z,570.00
2023-04-25T00:14:44.351Z,570.00
2023-04-25T00:15:44.385Z,569.00
2023-04-25T00:16:44.341Z,571.00
2023-04-25T00:17:44.387Z,570.00
2023-04-25T00:18:44.322Z,570.00
2023-04-25T00:19:44.387Z,569.00
2023-04-25T00:20:44.674Z,571.00
2023-04-25T00:21:44.343Z,572.00
2023-04-25T00:22:44.293Z,572.00
2023-04-25T00:23:44.304Z,572.00
2023-04-25T00:24:44.270Z,571.00
2023-04-25T00:25:44.301Z,571.00
2023-04-25T00:26:44.268Z,572.00
2023-04-25T00:27:44.281Z,572.00
2023-04-25T00:28:44.261Z,571.00
2023-04-25T00:29:44.273Z,573.00
2023-04-25T00:30:44.246Z,574.00
2023-04-25T00:31:44.234Z,573.00
2023-04-25T00:32:44.281Z,571.00
2023-04-25T00:33:44.207Z,570.00
2023-04-25T00:34:44.199Z,574.00
2023-04-25T00:35:44.179Z,577.00
2023-04-25T00:36:44.187Z,578.00
2023-04-25T00:37:44.232Z,577.00
2023-04-25T00:38:44.177Z,574.00
2023-04-25T00:39:44.209Z,575.00
2023-04-25T00:40:44.158Z,574.00
2023-04-25T00:41:44.148Z,572.00
2023-04-25T00:42:44.154Z,573.00
2023-04-25T00:43:44.123Z,572.00
2023-04-25T00:44:44.123Z,574.00
2023-04-25T00:45:44.164Z,572.00
2023-04-25T00:46:44.133Z,574.00
2023-04-25T00:47:44.206Z,575.00
2023-04-25T00:48:44.110Z,575.00
2023-04-25T00:49:44.126Z,575.00
2023-04-25T00:50:44.210Z,576.00
2023-04-25T00:51:44.077Z,576.00
2023-04-25T00:52:44.072Z,573.00
2023-04-25T00:53:44.728Z,573.00
2023-04-25T00:54:44.089Z,572.00
2023-04-25T00:55:44.043Z,571.00
2023-04-25T00:56:44.050Z,572.00
2023-04-25T00:57:44.030Z,572.00
2023-04-25T00:58:44.142Z,570.00
2023-04-25T00:59:44.005Z,568.00
2023-04-25T01:00:44.096Z,569.00
2023-04-25T01:01:45.153Z,568.00
2023-04-25T01:02:44.290Z,567.00
2023-04-25T01:03:44.164Z,567.00
2023-04-25T01:04:43.993Z,570.00
2023-04-25T01:05:44.013Z,572.00
2023-04-25T01:06:43.982Z,569.00
2023-04-25T01:07:43.952Z,568.00
2023-04-25T01:08:43.951Z,567.00
2023-04-25T01:09:44.198Z,569.00
2023-04-25T01:10:43.955Z,573.00
2023-04-25T01:11:43.919Z,572.00
2023-04-25T01:12:43.960Z,573.00
2023-04-25T01:13:43.922Z,573.00
2023-04-25T01:14:43.953Z,572.00
2023-04-25T01:15:43.908Z,573.00
2023-04-25T01:16:43.963Z,575.00
2023-04-25T01:17:43.979Z,574.00
2023-04-25T01:18:43.929Z,576.00
2023-04-25T01:19:45.669Z,574.00
2023-04-25T01:20:43.951Z,573.00
2023-04-25T01:21:43.967Z,575.00
2023-04-25T01:22:44.022Z,574.00
2023-04-25T01:23:44.007Z,575.00
2023-04-25T01:24:44.013Z,575.00
2023-04-25T01:25:43.978Z,574.00
2023-04-25T01:26:44.010Z,574.00
2023-04-25T01:27:44.049Z,575.00
2023-04-25T01:28:44.040Z,575.00
2023-04-25T01:29:44.028Z,576.00
2023-04-25T01:30:44.119Z,575.00
2023-04-25T01:31:44.119Z,576.00
2023-04-25T01:32:44.172Z,576.00
2023-04-25T01:33:44.142Z,574.00
2023-04-25T01:34:44.142Z,575.00
2023-04-25T01:35:44.268Z,574.00
2023-04-25T01:36:44.172Z,573.00
2023-04-25T01:37:44.223Z,572.00
2023-04-25T01:38:44.213Z,573.00
2023-04-25T01:39:44.244Z,572.00
2023-04-25T01:40:44.269Z,573.00
2023-04-25T01:41:44.284Z,573.00
2023-04-25T01:42:44.290Z,573.00
2023-04-25T01:43:44.311Z,575.00
2023-04-25T01:44:44.324Z,575.00
2023-04-25T01:45:44.378Z,575.00
2023-04-25T01:46:44.380Z,573.00
2023-04-25T01:47:44.426Z,572.00
2023-04-25T01:48:44.397Z,572.00
2023-04-25T01:49:44.417Z,573.00
2023-04-25T01:50:44.422Z,572.00
2023-04-25T01:51:44.466Z,572.00
2023-04-25T01:52:44.435Z,571.00
2023-04-25T01:53:44.623Z,572.00
2023-04-25T01:54:44.463Z,572.00
2023-04-25T01:55:45.210Z,570.00
2023-04-25T01:56:44.570Z,570.00
2023-04-25T01:57:44.529Z,570.00
2023-04-25T01:58:44.549Z,568.00
2023-04-25T01:59:44.566Z,567.00
2023-04-25T02:00:44.573Z,566.00
2023-04-25T02:01:44.646Z,568.00
2023-04-25T02:02:44.758Z,569.00
2023-04-25T02:03:44.710Z,573.00
2023-04-25T02:04:44.848Z,573.00
2023-04-25T02:05:44.593Z,572.00
2023-04-25T02:06:44.629Z,571.00
2023-04-25T02:07:44.666Z,570.00
2023-04-25T02:08:44.641Z,571.00
2023-04-25T02:09:44.672Z,570.00
2023-04-25T02:10:44.665Z,569.00
2023-04-25T02:11:44.696Z,569.00
2023-04-25T02:12:44.691Z,568.00
2023-04-25T02:13:44.706Z,565.00
2023-04-25T02:14:44.728Z,562.00
2023-04-25T02:15:44.751Z,564.00
2023-04-25T02:16:45.251Z,564.00
2023-04-25T02:17:44.839Z,565.00
2023-04-25T02:18:44.772Z,566.00
2023-04-25T02:19:44.780Z,566.00
2023-04-25T02:20:44.796Z,567.00
2023-04-25T02:21:44.828Z,565.00
2023-04-25T02:22:44.825Z,565.00
2023-04-25T02:23:44.838Z,564.00
2023-04-25T02:24:44.818Z,566.00
2023-04-25T02:25:44.828Z,568.00
2023-04-25T02:26:44.853Z,568.00
2023-04-25T02:27:44.884Z,568.00
2023-04-25T02:28:44.899Z,569.00
2023-04-25T02:29:44.856Z,567.00
2023-04-25T02:30:44.857Z,571.00
2023-04-25T02:31:44.956Z,572.00
2023-04-25T02:32:44.954Z,573.00
2023-04-25T02:33:44.929Z,573.00
2023-04-25T02:34:44.879Z,573.00
2023-04-25T02:35:44.882Z,574.00
2023-04-25T02:36:44.888Z,576.00
2023-04-25T02:37:44.907Z,577.00
2023-04-25T02:38:44.925Z,578.00
2023-04-25T02:39:44.924Z,576.00
2023-04-25T02:40:44.915Z,577.00
2023-04-25T02:41:44.921Z,578.00
2023-04-25T02:42:44.928Z,578.00
2023-04-25T02:43:44.936Z,581.00
2023-04-25T02:44:44.970Z,578.00
2023-04-25T02:45:44.956Z,578.00
2023-04-25T02:46:45.013Z,580.00
2023-04-25T02:47:44.976Z,581.00
2023-04-25T02:48:44.968Z,580.00
2023-04-25T02:49:44.972Z,579.00
2023-04-25T02:50:44.947Z,575.00
2023-04-25T02:51:44.970Z,575.00
2023-04-25T02:52:44.984Z,574.00
2023-04-25T02:53:44.996Z,573.00
2023-04-25T02:54:45.005Z,570.00
2023-04-25T02:55:44.982Z,571.00
2023-04-25T02:56:45.052Z,571.00
2023-04-25T02:57:45.025Z,574.00
2023-04-25T02:58:45.054Z,575.00
2023-04-25T02:59:45.253Z,574.00
2023-04-25T03:00:45.117Z,572.00
2023-04-25T03:01:45.123Z,574.00
2023-04-25T03:02:45.154Z,573.00
2023-04-25T03:03:45.202Z,573.00
2023-04-25T03:04:45.215Z,575.00
2023-04-25T03:05:45.230Z,574.00
2023-04-25T03:06:45.205Z,571.00
2023-04-25T03:07:45.195Z,571.00
2023-04-25T03:08:45.226Z,572.00
2023-04-25T03:09:45.269Z,571.00
2023-04-25T03:10:45.266Z,570.00
2023-04-25T03:11:45.272Z,570.00
2023-04-25T03:12:45.298Z,569.00
2023-04-25T03:13:45.349Z,566.00
2023-04-25T03:14:45.340Z,564.00
2023-04-25T03:15:45.305Z,564.00
2023-04-25T03:16:45.429Z,563.00
2023-04-25T03:17:45.355Z,563.00
2023-04-25T03:18:45.313Z,561.00
2023-04-25T03:19:45.340Z,562.00
2023-04-25T03:20:45.351Z,565.00
2023-04-25T03:21:45.379Z,563.00
2023-04-25T03:22:45.337Z,561.00
2023-04-25T03:23:45.368Z,560.00
2023-04-25T03:24:45.365Z,558.00
2023-04-25T03:25:45.390Z,557.00
2023-04-25T03:26:45.403Z,558.00
2023-04-25T03:27:45.427Z,557.00
2023-04-25T03:28:45.446Z,557.00
2023-04-25T03:29:45.434Z,558.00
2023-04-25T03:30:45.540Z,559.00
2023-04-25T03:31:45.549Z,558.00
2023-04-25T03:32:45.498Z,558.00
2023-04-25T03:33:45.506Z,557.00
2023-04-25T03:34:45.505Z,560.00
2023-04-25T03:35:45.526Z,561.00
2023-04-25T03:36:45.546Z,559.00
2023-04-25T03:37:45.556Z,562.00
2023-04-25T03:38:45.549Z,562.00
2023-04-25T03:39:45.601Z,563.00
2023-04-25T03:40:45.626Z,563.00
2023-04-25T03:41:45.632Z,564.00
2023-04-25T03:42:45.641Z,563.00
2023-04-25T03:43:45.629Z,562.00
2023-04-25T03:44:45.646Z,562.00
2023-04-25T03:45:45.698Z,563.00
2023-04-25T03:46:45.667Z,563.00
2023-04-25T03:47:45.699Z,563.00
2023-04-25T03:48:45.679Z,562.00
2023-04-25T03:49:45.707Z,561.00
2023-04-25T03:50:45.711Z,559.00
2023-04-25T03:51:45.751Z,559.00
2023-04-25T03:52:45.752Z,558.00
2023-04-25T03:53:45.752Z,556.00
2023-04-25T03:54:45.785Z,557.00
2023-04-25T03:55:45.775Z,561.00
2023-04-25T03:56:45.827Z,560.00
2023-04-25T03:57:45.796Z,563.00
2023-04-25T03:58:45.799Z,565.00
2023-04-25T03:59:45.818Z,565.00
2023-04-25T04:00:45.854Z,566.00
2023-04-25T04:01:45.865Z,567.00
2023-04-25T04:02:46.020Z,564.00
2023-04-25T04:03:46.098Z,563.00
2023-04-25T04:04:46.085Z,564.00
2023-04-25T04:05:45.957Z,563.00
2023-04-25T04:06:45.914Z,561.00
2023-04-25T04:07:45.928Z,560.00
2023-04-25T04:08:45.886Z,558.00
2023-04-25T04:09:45.921Z,555.00
2023-04-25T04:10:45.922Z,553.00
2023-04-25T04:11:45.950Z,552.00
2023-04-25T04:12:45.951Z,552.00
2023-04-25T04:13:45.986Z,551.00
2023-04-25T04:14:46.018Z,550.00
2023-04-25T04:15:46.096Z,552.00
2023-04-25T04:16:46.036Z,552.00
2023-04-25T04:17:46.153Z,553.00
2023-04-25T04:18:46.082Z,555.00
2023-04-25T04:19:46.103Z,555.00
2023-04-25T04:20:46.110Z,557.00
2023-04-25T04:21:46.150Z,560.00
2023-04-25T04:22:46.141Z,559.00
2023-04-25T04:23:46.168Z,559.00
2023-04-25T04:24:46.204Z,557.00
2023-04-25T04:25:46.198Z,556.00
2023-04-25T04:26:46.238Z,555.00
2023-04-25T04:27:46.756Z,553.00
2023-04-25T04:28:46.254Z,553.00
2023-04-25T04:29:46.295Z,553.00
2023-04-25T04:30:46.294Z,554.00
2023-04-25T04:31:46.297Z,554.00
2023-04-25T04:32:47.439Z,556.00
2023-04-25T04:33:46.469Z,554.00
2023-04-25T04:34:46.465Z,555.00
2023-04-25T04:35:46.502Z,554.00
2023-04-25T04:36:46.541Z,554.00
2023-04-25T04:37:46.580Z,555.00
2023-04-25T04:38:46.566Z,554.00
2023-04-25T04:39:46.622Z,553.00
2023-04-25T04:40:46.578Z,554.00
2023-04-25T04:41:46.657Z,554.00
2023-04-25T04:42:46.622Z,556.00
2023-04-25T04:43:46.638Z,557.00
2023-04-25T04:44:46.710Z,556.00
2023-04-25T04:45:46.659Z,556.00
2023-04-25T04:46:46.707Z,555.00
2023-04-25T04:47:46.771Z,557.00
2023-04-25T04:48:46.724Z,557.00
2023-04-25T04:49:46.773Z,559.00
2023-04-25T04:50:46.823Z,558.00
2023-04-25T04:51:46.809Z,557.00
2023-04-25T04:52:46.798Z,557.00
2023-04-25T04:53:46.826Z,558.00
2023-04-25T04:54:46.861Z,560.00
2023-04-25T04:55:46.871Z,560.00
2023-04-25T04:56:46.880Z,560.00
2023-04-25T04:57:46.906Z,559.00
2023-04-25T04:58:46.917Z,558.00
2023-04-25T04:59:46.928Z,556.00
2023-04-25T05:00:46.944Z,555.00
2023-04-25T05:01:46.961Z,554.00
2023-04-25T05:02:47.117Z,552.00
2023-04-25T05:03:47.131Z,550.00
2023-04-25T05:04:47.065Z,548.00
2023-04-25T05:05:47.003Z,547.00
2023-04-25T05:06:48.961Z,547.00
2023-04-25T05:07:47.034Z,544.00
2023-04-25T05:08:47.053Z,543.00
2023-04-25T05:09:47.069Z,542.00
2023-04-25T05:10:47.098Z,541.00
2023-04-25T05:11:47.111Z,540.00
2023-04-25T05:12:47.129Z,542.00
2023-04-25T05:13:47.146Z,540.00
2023-04-25T05:14:47.193Z,538.00
2023-04-25T05:15:47.184Z,537.00
2023-04-25T05:16:47.228Z,534.00
2023-04-25T05:17:47.295Z,531.00
2023-04-25T05:18:47.259Z,531.00
2023-04-25T05:19:47.249Z,530.00
2023-04-25T05:20:47.289Z,529.00
2023-04-25T05:21:47.283Z,527.00
2023-04-25T05:22:47.323Z,526.00
2023-04-25T05:23:47.317Z,524.00
2023-04-25T05:24:47.380Z,527.00
2023-04-25T05:25:47.423Z,528.00
2023-04-25T05:26:48.310Z,527.00
2023-04-25T05:27:47.471Z,529.00
2023-04-25T05:28:47.472Z,533.00
2023-04-25T05:29:47.446Z,536.00
2023-04-25T05:30:47.763Z,538.00
2023-04-25T05:31:47.509Z,540.00
2023-04-25T05:32:48.303Z,755.00
2023-04-25T05:33:54.257Z,813.00
2023-04-25T05:34:47.580Z,720.00
2023-04-25T05:35:47.549Z,726.00
2023-04-25T05:36:47.543Z,724.00
2023-04-25T05:37:47.754Z,699.00
2023-04-25T05:38:47.514Z,695.00
2023-04-25T05:39:47.534Z,680.00
2023-04-25T05:40:48.265Z,668.00
2023-04-25T05:41:47.512Z,681.00
2023-04-25T05:42:47.794Z,685.00
2023-04-25T05:43:47.524Z,692.00
2023-04-25T05:44:47.498Z,698.00
2023-04-25T05:45:50.388Z,705.00
2023-04-25T05:46:47.437Z,713.00
2023-04-25T05:47:47.769Z,740.00
2023-04-25T05:48:47.437Z,789.00
2023-04-25T05:49:47.419Z,786.00
2023-04-25T05:50:47.775Z,721.00
2023-04-25T05:51:47.414Z,700.00
2023-04-25T05:52:47.444Z,695.00
2023-04-25T05:53:47.586Z,696.00
2023-04-25T05:54:47.387Z,700.00
2023-04-25T05:55:47.410Z,704.00
2023-04-25T05:56:47.373Z,707.00
2023-04-25T05:57:47.729Z,706.00
2023-04-25T05:58:47.448Z,708.00
2023-04-25T05:59:47.378Z,735.00
2023-04-25T06:00:47.402Z,749.00
2023-04-25T06:01:47.541Z,751.00
2023-04-25T06:02:47.447Z,781.00
2023-04-25T06:03:47.629Z,780.00
2023-04-25T06:04:47.478Z,780.00
2023-04-25T06:05:47.377Z,782.00
2023-04-25T06:06:47.328Z,785.00
2023-04-25T06:07:47.308Z,784.00
2023-04-25T06:08:47.352Z,782.00
2023-04-25T06:09:47.306Z,789.00
2023-04-25T06:10:47.287Z,900.00
2023-04-25T06:11:47.315Z,849.00
2023-04-25T06:12:47.303Z,857.00
2023-04-25T06:13:47.289Z,854.00
2023-04-25T06:14:47.272Z,863.00
2023-04-25T06:15:47.303Z,830.00
2023-04-25T06:16:47.749Z,839.00
2023-04-25T06:17:47.285Z,842.00
2023-04-25T06:18:47.222Z,832.00
2023-04-25T06:19:47.216Z,805.00
2023-04-25T06:20:47.225Z,814.00
2023-04-25T06:21:47.252Z,816.00
2023-04-25T06:22:47.224Z,781.00
2023-04-25T06:23:47.210Z,812.00
2023-04-25T06:24:47.180Z,809.00
2023-04-25T06:25:47.271Z,814.00
2023-04-25T06:26:47.283Z,816.00
2023-04-25T06:27:47.160Z,820.00
2023-04-25T06:28:47.174Z,817.00
2023-04-25T06:29:47.168Z,817.00
2023-04-25T06:30:47.162Z,869.00
2023-04-25T06:31:47.180Z,742.00
2023-04-25T06:32:47.187Z,748.00
2023-04-25T06:33:47.121Z,742.00
2023-04-25T06:34:47.109Z,732.00
2023-04-25T06:35:47.111Z,727.00
2023-04-25T06:36:47.104Z,702.00
2023-04-25T06:37:47.319Z,704.00
2023-04-25T06:40:06.512Z,818.00
2023-04-25T06:41:06.291Z,944.00
2023-04-25T06:42:06.304Z,917.00
2023-04-25T06:43:06.479Z,808.00
2023-04-25T06:44:06.256Z,804.00
2023-04-25T06:45:06.247Z,804.00
2023-04-25T06:46:06.277Z,803.00
2023-04-25T06:47:06.355Z,804.00
2023-04-25T06:48:06.342Z,811.00
2023-04-25T06:49:06.230Z,816.00
2023-04-25T06:50:06.260Z,826.00
2023-04-25T06:51:06.240Z,836.00
2023-04-25T06:52:06.248Z,839.00
2023-04-25T06:53:06.198Z,841.00
2023-04-25T06:54:06.172Z,837.00
2023-04-25T06:55:06.208Z,835.00
2023-04-25T06:56:06.513Z,835.00
2023-04-25T06:57:06.187Z,834.00
2023-04-25T06:58:06.194Z,835.00
2023-04-25T06:59:06.146Z,851.00
2023-04-25T07:00:08.981Z,904.00
2023-04-25T07:01:06.238Z,906.00
2023-04-25T07:02:06.115Z,906.00
2023-04-25T07:03:06.310Z,905.00
2023-04-25T07:04:06.336Z,899.00
2023-04-25T07:05:06.190Z,893.00
2023-04-25T07:06:06.117Z,893.00
2023-04-25T07:07:06.246Z,896.00
2023-04-25T07:08:06.165Z,901.00
2023-04-25T07:09:06.096Z,908.00
2023-04-25T07:10:06.090Z,913.00
2023-04-25T07:11:06.082Z,922.00
2023-04-25T07:12:06.068Z,930.00
2023-04-25T07:13:06.989Z,939.00
2023-04-25T07:14:06.070Z,946.00
2023-04-25T07:15:06.110Z,952.00
2023-04-25T07:16:06.577Z,956.00
2023-04-25T07:17:06.078Z,964.00
2023-04-25T07:18:08.024Z,966.00
2023-04-25T07:19:06.040Z,971.00
2023-04-25T07:20:06.018Z,967.00
2023-04-25T07:21:06.045Z,970.00
2023-04-25T07:22:06.024Z,974.00
2023-04-25T07:23:06.022Z,981.00
2023-04-25T07:24:05.995Z,985.00
2023-04-25T07:25:06.021Z,985.00
2023-04-25T07:26:06.050Z,985.00
2023-04-25T07:27:05.980Z,984.00
2023-04-25T07:28:05.989Z,984.00
2023-04-25T07:29:05.972Z,987.00
2023-04-25T07:30:06.020Z,985.00
2023-04-25T07:31:06.028Z,983.00
2023-04-25T07:32:05.988Z,1049.00
2023-04-25T07:33:06.536Z,1050.00
2023-04-25T07:34:05.989Z,1223.00
2023-04-25T07:35:05.999Z,1227.00
2023-04-25T07:36:06.519Z,1187.00
2023-04-25T07:37:06.495Z,1303.00
2023-04-25T07:38:05.993Z,1310.00
2023-04-25T07:39:05.946Z,1305.00
2023-04-25T07:40:05.891Z,1258.00
2023-04-25T07:41:06.004Z,1086.00
2023-04-25T07:42:05.894Z,1101.00
2023-04-25T07:43:05.860Z,1104.00
2023-04-25T07:44:05.868Z,1102.00
2023-04-25T07:45:05.870Z,1109.00
2023-04-25T07:46:05.983Z,1113.00
2023-04-25T07:47:05.929Z,1104.00
2023-04-25T07:48:06.070Z,1094.00
2023-04-25T07:49:05.851Z,1093.00
2023-04-25T07:50:05.834Z,1099.00
2023-04-25T07:51:05.816Z,1052.00
2023-04-25T07:52:05.825Z,1040.00
2023-04-25T07:53:06.053Z,1048.00
2023-04-25T07:54:07.542Z,1055.00
2023-04-25T07:55:06.585Z,1057.00
2023-04-25T07:56:06.519Z,1128.00
2023-04-25T07:57:05.863Z,1097.00
2023-04-25T07:58:06.580Z,1176.00
2023-04-25T07:59:05.852Z,1178.00
2023-04-25T08:00:05.838Z,1182.00
2023-04-25T08:01:05.977Z,1168.00
2023-04-25T08:02:05.897Z,1166.00
2023-04-25T08:03:06.733Z,1164.00
2023-04-25T08:04:06.084Z,1107.00
2023-04-25T08:05:06.040Z,1188.00
2023-04-25T08:06:08.176Z,1153.00
2023-04-25T08:07:06.796Z,1152.00
2023-04-25T08:08:05.841Z,1141.00
2023-04-25T08:09:06.040Z,1144.00
2023-04-25T08:10:06.057Z,1136.00
2023-04-25T08:11:06.074Z,1131.00
2023-04-25T08:12:05.805Z,1144.00
2023-04-25T08:13:05.817Z,1216.00
2023-04-25T08:14:05.789Z,1212.00
2023-04-25T08:15:05.883Z,1190.00
2023-04-25T08:16:06.593Z,1200.00
2023-04-25T08:17:05.915Z,1191.00
2023-04-25T08:18:05.811Z,1243.00
2023-04-25T08:19:06.017Z,1188.00
2023-04-25T08:20:05.760Z,1213.00
2023-04-25T08:21:06.047Z,1207.00
2023-04-25T08:22:05.739Z,1233.00
2023-04-25T08:23:05.728Z,1261.00
2023-04-25T08:24:05.907Z,1249.00
2023-04-25T08:25:05.696Z,1254.00
2023-04-25T08:26:05.756Z,1297.00
2023-04-25T08:27:05.711Z,1296.00
2023-04-25T08:28:05.720Z,1288.00
2023-04-25T08:29:06.062Z,1276.00
2023-04-25T08:30:05.756Z,1270.00
2023-04-25T08:31:05.731Z,1483.00
2023-04-25T08:32:06.551Z,1451.00
2023-04-25T08:33:05.695Z,1446.00
2023-04-25T08:34:05.685Z,1376.00
2023-04-25T08:35:05.651Z,1377.00
2023-04-25T08:36:05.739Z,1326.00
2023-04-25T08:37:05.653Z,1268.00
2023-04-25T08:38:05.641Z,1205.00
2023-04-25T08:39:06.024Z,1227.00
2023-04-25T08:40:06.557Z,1391.00
2023-04-25T08:41:06.545Z,1376.00
2023-04-25T08:42:05.732Z,1357.00
2023-04-25T08:43:08.518Z,1325.00
2023-04-25T08:44:06.549Z,1253.00
2023-04-25T08:46:06.594Z,1232.00
2023-04-25T08:47:05.713Z,1211.00
2023-04-25T08:48:05.567Z,1192.00
2023-04-25T08:49:06.636Z,1184.00
2023-04-25T08:50:05.553Z,1180.00
2023-04-25T08:51:06.028Z,1175.00
2023-04-25T08:52:05.542Z,1174.00
2023-04-25T08:53:05.554Z,1154.00
2023-04-25T08:54:10.398Z,1154.00
2023-04-25T08:55:06.618Z,1150.00
2023-04-25T08:56:05.578Z,1145.00
2023-04-25T08:57:06.652Z,1079.00
2023-04-25T08:58:07.551Z,1073.00
2023-04-25T08:59:06.065Z,1073.00
2023-04-25T09:00:05.549Z,1079.00
2023-04-25T09:01:05.598Z,1069.00
2023-04-25T09:02:05.601Z,1086.00
2023-04-25T09:03:05.716Z,1047.00
2023-04-25T09:04:05.772Z,1054.00
2023-04-25T09:05:06.538Z,1051.00
2023-04-25T09:06:05.544Z,1033.00
2023-04-25T09:07:05.553Z,1009.00
2023-04-25T09:08:05.562Z,1049.00
2023-04-25T09:09:06.093Z,1037.00
2023-04-25T09:10:05.536Z,1151.00
2023-04-25T09:11:05.564Z,1061.00
2023-04-25T09:12:05.569Z,1057.00
2023-04-25T09:13:05.567Z,1044.00
2023-04-25T09:14:05.639Z,1038.00
2023-04-25T09:15:05.642Z,1010.00
2023-04-25T09:16:05.567Z,1019.00
2023-04-25T09:17:05.894Z,1061.00
2023-04-25T09:18:05.660Z,1045.00
2023-04-25T09:19:05.619Z,1035.00
2023-04-25T09:20:05.583Z,1018.00
2023-04-25T09:21:12.581Z,985.00
2023-04-25T09:22:06.669Z,998.00
2023-04-25T09:23:05.576Z,1005.00
2023-04-25T09:24:05.684Z,1065.00
2023-04-25T09:25:05.581Z,958.00
2023-04-25T09:26:05.546Z,916.00
2023-04-25T09:27:05.589Z,890.00
2023-04-25T09:28:05.595Z,899.00
2023-04-25T09:29:05.551Z,918.00
2023-04-25T09:30:05.570Z,961.00
2023-04-25T09:31:06.036Z,1022.00
2023-04-25T09:32:06.131Z,1043.00
2023-04-25T09:33:05.661Z,1064.00
2023-04-25T09:34:07.066Z,1063.00
2023-04-25T09:35:06.343Z,1093.00
2023-04-25T09:36:06.067Z,1109.00
2023-04-25T09:37:05.541Z,1120.00
2023-04-25T09:38:06.100Z,1132.00
2023-04-25T09:39:05.612Z,1189.00
2023-04-25T09:40:06.109Z,1192.00
2023-04-25T09:41:06.940Z,1196.00
2023-04-25T09:42:05.581Z,1192.00
2023-04-25T09:43:05.628Z,1191.00
2023-04-25T09:44:05.465Z,1185.00
2023-04-25T09:45:05.452Z,1181.00
2023-04-25T09:46:06.229Z,1188.00
2023-04-25T09:47:07.156Z,1193.00
2023-04-25T09:48:05.766Z,1194.00
2023-04-25T09:49:06.130Z,1192.00
2023-04-25T09:50:05.650Z,1135.00
2023-04-25T09:51:05.650Z,1096.00
2023-04-25T09:52:06.229Z,1064.00
2023-04-25T09:53:05.655Z,1041.00
2023-04-25T09:54:05.668Z,1035.00
2023-04-25T09:55:05.733Z,1029.00
2023-04-25T09:56:05.672Z,1016.00
2023-04-25T09:57:06.077Z,1028.00
2023-04-25T09:58:05.685Z,1101.00
2023-04-25T09:59:05.743Z,1110.00
2023-04-25T10:00:05.684Z,1108.00
2023-04-25T10:01:05.676Z,1106.00
2023-04-25T10:02:05.711Z,1110.00
2023-04-25T10:03:05.711Z,986.00
2023-04-25T10:04:06.172Z,984.00
2023-04-25T10:05:05.783Z,974.00
2023-04-25T10:06:05.699Z,913.00
2023-04-25T10:07:06.060Z,905.00
2023-04-25T10:08:05.965Z,895.00
2023-04-25T10:09:06.722Z,878.00
2023-04-25T10:10:05.814Z,868.00
2023-04-25T10:11:05.771Z,858.00
2023-04-25T10:12:05.870Z,850.00
2023-04-25T10:13:05.786Z,838.00
2023-04-25T10:14:05.751Z,833.00
2023-04-25T10:15:06.168Z,829.00
2023-04-25T10:16:05.997Z,825.00
2023-04-25T10:17:05.777Z,824.00
2023-04-25T10:18:05.820Z,829.00
2023-04-25T10:19:05.765Z,847.00
2023-04-25T10:20:07.572Z,872.00
2023-04-25T10:21:05.823Z,884.00
2023-04-25T10:22:07.561Z,888.00
2023-04-25T10:23:05.848Z,894.00
2023-04-25T10:24:05.881Z,905.00
2023-04-25T10:25:05.886Z,936.00
2023-04-25T10:26:06.614Z,1015.00
2023-04-25T10:27:06.064Z,996.00
2023-04-25T10:28:06.648Z,990.00
2023-04-25T10:29:05.963Z,1113.00
2023-04-25T10:30:05.969Z,1183.00
2023-04-25T10:31:06.047Z,1218.00
2023-04-25T10:32:06.066Z,1219.00
2023-04-25T10:33:05.983Z,1320.00
2023-04-25T10:34:06.141Z,1299.00
2023-04-25T10:35:06.072Z,1080.00
2023-04-25T10:36:06.075Z,1058.00
2023-04-25T10:37:06.177Z,1053.00
2023-04-25T10:38:06.218Z,1091.00
2023-04-25T10:39:06.216Z,1079.00
2023-04-25T10:40:06.211Z,1065.00
2023-04-25T10:41:06.239Z,1059.00
2023-04-25T10:42:06.565Z,1055.00
2023-04-25T10:43:07.077Z,1048.00
2023-04-25T10:44:06.226Z,1045.00
2023-04-25T10:45:06.302Z,1036.00
2023-04-25T10:46:06.376Z,1024.00
2023-04-25T10:47:06.467Z,1015.00
2023-04-25T10:48:06.427Z,1008.00
2023-04-25T10:49:06.437Z,1002.00
2023-04-25T10:50:06.567Z,992.00
2023-04-25T10:51:06.482Z,981.00
2023-04-25T10:52:06.552Z,970.00
2023-04-25T10:53:06.548Z,955.00
2023-04-25T10:54:06.670Z,949.00
2023-04-25T10:55:06.634Z,941.00
2023-04-25T10:56:08.201Z,926.00
2023-04-25T10:57:06.747Z,906.00
2023-04-25T10:58:06.727Z,887.00
2023-04-25T10:59:06.749Z,871.00
2023-04-25T11:00:06.762Z,871.00
2023-04-25T11:01:06.776Z,876.00
2023-04-25T11:02:06.930Z,885.00
2023-04-25T11:03:07.025Z,1015.00
2023-04-25T11:04:07.237Z,928.00
2023-04-25T11:05:06.878Z,927.00
2023-04-25T11:06:06.836Z,963.00
2023-04-25T11:07:08.017Z,1053.00
2023-04-25T11:08:08.140Z,1068.00
2023-04-25T11:09:15.484Z,1001.00
2023-04-25T11:10:07.582Z,954.00
2023-04-25T11:11:07.134Z,887.00
2023-04-25T11:12:07.616Z,873.00
2023-04-25T11:13:07.171Z,865.00
2023-04-25T11:14:07.154Z,853.00
2023-04-25T11:15:07.620Z,842.00
2023-04-25T11:16:12.593Z,834.00
2023-04-25T11:17:08.670Z,839.00
2023-04-25T11:18:08.211Z,1104.00
2023-04-25T11:19:07.291Z,1085.00
2023-04-25T11:20:07.106Z,1172.00
2023-04-25T11:21:07.125Z,1248.00
2023-04-25T11:22:07.137Z,1146.00
2023-04-25T11:23:07.098Z,1084.00
2023-04-25T11:24:07.118Z,1087.00
2023-04-25T11:25:07.206Z,1045.00
2023-04-25T11:26:07.257Z,1035.00
2023-04-25T11:27:08.153Z,1019.00
2023-04-25T11:28:08.134Z,1010.00
2023-04-25T11:29:08.120Z,1008.00
2023-04-25T11:30:07.484Z,1008.00
2023-04-25T11:31:07.544Z,1010.00
2023-04-25T11:32:09.183Z,1013.00
2023-04-25T11:33:07.719Z,1012.00
2023-04-25T11:34:07.732Z,1011.00
2023-04-25T11:35:07.768Z,1007.00
2023-04-25T11:36:07.750Z,1001.00
2023-04-25T11:37:07.771Z,999.00
2023-04-25T11:38:07.840Z,995.00
2023-04-25T11:39:07.788Z,991.00
2023-04-25T11:40:07.828Z,981.00
2023-04-25T11:41:07.840Z,963.00
2023-04-25T11:42:08.897Z,944.00
2023-04-25T11:43:08.816Z,930.00
2023-04-25T11:44:07.811Z,917.00
2023-04-25T11:45:08.191Z,892.00
2023-04-25T11:46:07.831Z,877.00
2023-04-25T11:47:07.804Z,877.00
2023-04-25T11:48:07.840Z,875.00
2023-04-25T11:49:07.790Z,869.00
2023-04-25T11:50:07.766Z,859.00
2023-04-25T11:51:07.812Z,837.00
2023-04-25T11:52:07.778Z,818.00
2023-04-25T11:53:07.753Z,775.00
2023-04-25T11:54:07.780Z,759.00
2023-04-25T11:55:08.984Z,745.00
2023-04-25T11:56:07.924Z,735.00
2023-04-25T11:57:07.956Z,727.00
2023-04-25T11:58:08.165Z,717.00
2023-04-25T11:59:08.261Z,709.00
2023-04-25T12:00:08.110Z,704.00
2023-04-25T12:01:08.172Z,698.00
2023-04-25T12:02:08.198Z,694.00
2023-04-25T12:03:08.342Z,690.00
2023-04-25T12:04:08.336Z,684.00
2023-04-25T12:05:29.383Z,660.00
2023-04-25T12:06:09.413Z,652.00
2023-04-25T12:07:08.281Z,641.00
2023-04-25T12:08:08.274Z,637.00
2023-04-25T12:09:08.249Z,633.00
2023-04-25T12:10:08.633Z,625.00
2023-04-25T12:11:08.356Z,615.00
2023-04-25T12:12:08.220Z,607.00
2023-04-25T12:13:08.229Z,596.00
2023-04-25T12:14:08.269Z,588.00
2023-04-25T12:15:08.324Z,588.00
2023-04-25T12:16:08.476Z,587.00
2023-04-25T12:17:08.385Z,589.00
2023-04-25T12:18:08.535Z,589.00
2023-04-25T12:19:08.482Z,630.00
2023-04-25T12:20:08.737Z,876.00
2023-04-25T12:21:08.539Z,913.00
2023-04-25T12:22:08.523Z,794.00
2023-04-25T12:23:08.642Z,830.00
2023-04-25T12:24:08.543Z,873.00
2023-04-25T12:25:08.529Z,855.00